Time;durP1;ratioP1;P1;durP2;ratioP2;P2;SDS_P1;SDS_P2;PMS_P1;PMS_P2;Temp;Humidity;BMP_temperature;BMP_pressure;BME280_temperature;BME280_humidity;BME280_pressure;Samples;Min_cycle;Max_cycle;Signal;HPM_P1;HPM_P2
2023/06/12 00:02:18;;;;;;;9.45;4.78;;;;;;;18.72;100.00;101635.81;5092748;28;20039;-78
2023/06/12 00:04:44;;;;;;;5.15;4.20;;;;;;;18.65;100.00;101626.72;5075333;28;20068;-78
2023/06/12 00:07:10;;;;;;;9.68;4.80;;;;;;;18.58;100.00;101631.97;5093463;28;20032;-78
2023/06/12 00:09:36;;;;;;;7.85;4.90;;;;;;;18.52;100.00;101629.97;5093541;28;20036;-77
2023/06/12 00:12:01;;;;;;;5.93;4.38;;;;;;;18.46;100.00;101628.78;5093142;28;20444;-77
2023/06/12 00:14:27;;;;;;;9.68;4.85;;;;;;;18.42;100.00;101624.78;5092837;28;20028;-78
2023/06/12 00:16:52;;;;;;;9.38;5.20;;;;;;;18.40;100.00;101625.94;5093401;28;20118;-78
2023/06/12 00:19:18;;;;;;;10.07;4.68;;;;;;;18.36;100.00;101632.69;5092851;28;20177;-80
2023/06/12 00:21:44;;;;;;;9.93;4.60;;;;;;;18.33;100.00;101632.03;5058001;28;20055;-80
2023/06/12 00:24:10;;;;;;;7.63;4.78;;;;;;;18.30;100.00;101628.81;5092870;28;20032;-78
2023/06/12 00:26:35;;;;;;;6.32;5.00;;;;;;;18.27;100.00;101627.34;5093683;28;20378;-77
2023/06/12 00:29:01;;;;;;;7.28;4.95;;;;;;;18.23;100.00;101635.94;5091729;28;20016;-79
2023/06/12 00:31:27;;;;;;;7.78;4.38;;;;;;;18.16;100.00;101633.06;5092576;28;20032;-78
2023/06/12 00:33:52;;;;;;;7.28;4.53;;;;;;;18.08;100.00;101635.78;5074935;28;20038;-79
2023/06/12 00:36:17;;;;;;;5.68;4.57;;;;;;;18.00;100.00;101631.19;5092613;28;20053;-79
2023/06/12 00:38:43;;;;;;;8.85;4.40;;;;;;;17.96;100.00;101635.25;5074276;28;20032;-79
2023/06/12 00:41:08;;;;;;;6.32;4.57;;;;;;;17.92;100.00;101639.31;5092842;28;20032;-78
2023/06/12 00:43:34;;;;;;;4.90;4.40;;;;;;;17.85;100.00;101632.88;5092324;28;20032;-78
2023/06/12 00:46:00;;;;;;;5.88;4.28;;;;;;;17.79;100.00;101642.44;5073744;28;20421;-78
2023/06/12 00:48:26;;;;;;;7.10;4.95;;;;;;;17.74;100.00;101642.94;5092247;28;20040;-78
2023/06/12 00:50:52;;;;;;;5.60;4.32;;;;;;;17.68;100.00;101640.09;5092256;28;20028;-79
2023/06/12 00:53:18;;;;;;;5.40;4.38;;;;;;;17.63;100.00;101648.69;5092424;28;20443;-78
2023/06/12 00:55:44;;;;;;;8.27;4.25;;;;;;;17.56;100.00;101647.66;5092153;28;20039;-79
2023/06/12 00:58:09;;;;;;;6.63;4.70;;;;;;;17.48;100.00;101648.47;5091958;28;20367;-79
2023/06/12 01:00:38;;;;;;;8.20;4.78;;;;;;;17.41;100.00;101650.13;5091974;28;20415;-78
2023/06/12 01:03:06;;;;;;;7.63;4.78;;;;;;;17.32;100.00;101645.75;5073894;28;20549;-79
2023/06/12 01:05:37;;;;;;;6.75;4.53;;;;;;;17.24;100.00;101650.09;5091993;28;20453;-78
2023/06/12 01:08:15;;;;;;;7.15;4.70;;;;;;;17.21;100.00;101650.41;5092408;28;20111;-79
2023/06/12 01:10:45;;;;;;;5.38;4.53;;;;;;;17.15;100.00;101659.13;5092034;28;20036;-79
2023/06/12 01:13:11;;;;;;;6.97;4.43;;;;;;;17.13;100.00;101660.31;5091859;28;20111;-79
2023/06/12 01:15:37;;;;;;;6.80;4.28;;;;;;;17.08;100.00;101655.41;5092402;28;20020;-78
2023/06/12 01:18:05;;;;;;;7.80;4.43;;;;;;;17.05;100.00;101651.19;5091842;28;20028;-79
2023/06/12 01:20:31;;;;;;;9.65;4.70;;;;;;;17.00;100.00;101653.50;5092063;28;20039;-79
2023/06/12 01:23:14;;;;;;;7.32;4.43;;;;;;;16.96;100.00;101649.50;5074022;28;20352;-79
2023/06/12 01:26:00;;;;;;;6.25;4.10;;;;;;;16.91;100.00;101651.78;5092013;28;20027;-79
2023/06/12 01:28:37;;;;;;;5.78;4.50;;;;;;;16.85;100.00;101650.56;5091972;28;20158;-79
2023/06/12 01:31:28;;;;;;;4.60;4.10;;;;;;;16.80;100.00;101657.44;5091929;28;20035;-79
2023/06/12 01:34:07;;;;;;;5.97;4.10;;;;;;;16.76;100.00;101654.22;5091929;28;20024;-79
2023/06/12 01:36:36;;;;;;;4.00;3.60;;;;;;;16.71;100.00;101652.00;5092551;28;20028;-79
2023/06/12 01:39:04;;;;;;;5.47;4.07;;;;;;;16.69;100.00;101659.41;5092196;28;20348;-79
2023/06/12 01:41:32;;;;;;;5.05;4.03;;;;;;;16.68;100.00;101663.06;5093960;28;20055;-78
2023/06/12 01:44:06;;;;;;;6.53;4.05;;;;;;;16.67;100.00;101658.69;5095819;28;20067;-79
2023/06/12 01:46:32;;;;;;;6.07;4.47;;;;;;;16.64;100.00;101659.00;5096091;28;20153;-79
2023/06/12 01:48:57;;;;;;;4.80;4.30;;;;;;;16.60;100.00;101657.66;5096005;28;20024;-79
2023/06/12 01:51:22;;;;;;;7.50;4.18;;;;;;;16.55;100.00;101663.50;5077461;28;20113;-79
2023/06/12 01:53:48;;;;;;;6.80;4.38;;;;;;;16.51;100.00;101658.59;5077569;28;20024;-79
2023/06/12 01:56:14;;;;;;;6.15;4.30;;;;;;;16.48;100.00;101664.28;5077269;28;20102;-79
2023/06/12 01:58:40;;;;;;;7.85;3.90;;;;;;;16.43;100.00;101661.25;5095559;28;20460;-79
2023/06/12 02:01:05;;;;;;;6.68;4.68;;;;;;;16.37;100.00;101660.84;5095205;28;20112;-79
2023/06/12 02:03:32;;;;;;;4.82;4.18;;;;;;;16.33;100.00;101670.25;5094761;28;20105;-77
2023/06/12 02:05:57;;;;;;;4.30;3.70;;;;;;;16.29;100.00;101668.03;5095502;28;20032;-78
2023/06/12 02:08:23;;;;;;;5.30;4.15;;;;;;;16.24;100.00;101673.84;5095548;28;20027;-79
2023/06/12 02:10:48;;;;;;;4.90;4.18;;;;;;;16.21;100.00;101671.47;5095310;28;20106;-78
2023/06/12 02:13:13;;;;;;;5.50;4.15;;;;;;;16.17;100.00;101667.44;5094839;28;20468;-79
2023/06/12 02:15:39;;;;;;;7.57;4.38;;;;;;;16.11;100.00;101668.91;5093454;28;20024;-77
2023/06/12 02:18:04;;;;;;;4.68;3.90;;;;;;;16.07;100.00;101666.69;5093846;28;20024;-77
2023/06/12 02:20:30;;;;;;;6.15;4.10;;;;;;;16.03;100.00;101671.50;5093890;28;20132;-75
2023/06/12 02:22:55;;;;;;;6.70;4.43;;;;;;;15.98;100.00;101668.44;5093614;28;20201;-75
2023/06/12 02:25:20;;;;;;;6.07;4.28;;;;;;;15.93;100.00;101663.56;5074723;28;20028;-74
2023/06/12 02:27:46;;;;;;;5.22;4.20;;;;;;;15.88;100.00;101665.84;5093127;28;20039;-75
2023/06/12 02:30:11;;;;;;;6.90;4.47;;;;;;;15.83;100.00;101657.41;5093013;28;20031;-75
2023/06/12 02:32:38;;;;;;;6.68;4.68;;;;;;;15.78;100.00;101663.25;5093284;28;20027;-75
2023/06/12 02:35:08;;;;;;;5.50;4.50;;;;;;;15.74;100.00;101661.00;5093197;28;20032;-75
2023/06/12 02:37:35;;;;;;;4.72;4.20;;;;;;;15.68;100.00;101657.09;5074614;28;20078;-75
2023/06/12 02:40:00;;;;;;;5.72;4.35;;;;;;;15.66;100.00;101656.41;5093267;28;20333;-75
2023/06/12 02:42:26;;;;;;;5.65;4.45;;;;;;;15.64;100.00;101661.06;5093469;28;20043;-75
2023/06/12 02:44:51;;;;;;;9.55;4.72;;;;;;;15.59;100.00;101652.63;5093344;28;20056;-75
2023/06/12 02:47:18;;;;;;;9.25;4.30;;;;;;;15.57;100.00;101658.16;5092737;28;20024;-74
2023/06/12 02:49:44;;;;;;;7.72;4.63;;;;;;;15.54;100.00;101654.91;5092851;28;20032;-75
2023/06/12 02:52:11;;;;;;;6.78;4.90;;;;;;;15.49;100.00;101656.22;5092222;28;20115;-75
2023/06/12 02:54:36;;;;;;;5.47;4.30;;;;;;;15.45;100.00;101653.97;5093015;28;20131;-74
2023/06/12 02:57:02;;;;;;;11.65;4.85;;;;;;;15.42;100.00;101659.66;5074245;28;20127;-75
2023/06/12 02:59:27;;;;;;;7.50;4.78;;;;;;;15.38;100.00;101648.41;5092654;28;20020;-74
2023/06/12 03:01:53;;;;;;;4.82;4.30;;;;;;;15.36;100.00;101654.91;5074243;28;20032;-75
2023/06/12 03:04:20;;;;;;;6.57;4.53;;;;;;;15.30;100.00;101654.50;5092499;28;20173;-76
2023/06/12 03:06:54;;;;;;;7.05;5.10;;;;;;;15.29;100.00;101654.66;5092537;28;20048;-75
2023/06/12 03:09:23;;;;;;;6.38;4.70;;;;;;;15.26;100.00;101660.34;5092356;28;20076;-75
2023/06/12 03:11:51;;;;;;;6.32;4.40;;;;;;;15.23;100.00;101656.09;5092427;28;20087;-74
2023/06/12 03:14:21;;;;;;;6.97;4.63;;;;;;;15.20;100.00;101655.53;5092145;28;20020;-74
2023/06/12 03:16:48;;;;;;;8.32;4.30;;;;;;;15.18;100.00;101657.53;5092040;28;20492;-74
2023/06/12 03:19:13;;;;;;;5.57;4.50;;;;;;;15.16;100.00;101658.53;5091751;28;20454;-74
2023/06/12 03:21:39;;;;;;;5.75;4.70;;;;;;;15.15;100.00;101667.56;5092268;28;20036;-74
2023/06/12 03:24:05;;;;;;;6.20;4.40;;;;;;;15.14;100.00;101665.03;5092430;28;20024;-74
2023/06/12 03:26:33;;;;;;;11.80;4.50;;;;;;;15.13;100.00;101663.34;5091554;28;20028;-75
2023/06/12 03:29:00;;;;;;;6.82;4.72;;;;;;;15.10;100.00;101661.81;5091680;28;20471;-75
2023/06/12 03:31:26;;;;;;;6.95;4.25;;;;;;;15.11;100.00;101676.91;5073537;28;20057;-76
2023/06/12 03:33:55;;;;;;;5.20;4.70;;;;;;;15.12;100.00;101677.72;5091869;28;20077;-77
2023/06/12 03:36:23;;;;;;;9.57;5.03;;;;;;;15.11;100.00;101673.38;5091642;28;20047;-76
2023/06/12 03:38:49;;;;;;;7.15;4.57;;;;;;;15.11;100.00;101674.22;5092371;28;20024;-75
2023/06/12 03:41:14;;;;;;;7.93;4.63;;;;;;;15.11;100.00;101679.59;5091638;28;20039;-75
2023/06/12 03:43:39;;;;;;;6.47;4.70;;;;;;;15.10;100.00;101672.53;5091624;28;20111;-75
2023/06/12 03:46:05;;;;;;;9.38;5.10;;;;;;;15.11;100.00;101676.06;5091755;28;20032;-75
2023/06/12 03:48:30;;;;;;;13.32;5.50;;;;;;;15.12;100.00;101681.28;5091876;28;20060;-75
2023/06/12 03:50:56;;;;;;;8.50;4.80;;;;;;;15.12;100.00;101675.06;5091315;28;20139;-75
2023/06/12 03:53:21;;;;;;;7.78;5.07;;;;;;;15.12;100.00;101681.28;5073505;28;20024;-74
2023/06/12 03:55:46;;;;;;;17.90;5.00;;;;;;;15.13;100.00;101688.31;5091496;28;20043;-75
2023/06/12 03:58:16;;;;;;;10.52;5.00;;;;;;;15.14;100.00;101681.97;5091283;28;20039;-75
2023/06/12 04:00:48;;;;;;;8.02;4.47;;;;;;;15.15;100.00;101689.03;5091290;28;20051;-75
2023/06/12 04:03:18;;;;;;;5.53;4.78;;;;;;;15.16;100.00;101689.84;5072891;28;20044;-75
2023/06/12 04:05:45;;;;;;;8.07;4.80;;;;;;;15.19;100.00;101694.09;5091367;28;20032;-75
2023/06/12 04:08:10;;;;;;;6.55;4.85;;;;;;;15.20;100.00;101693.06;5072909;28;20043;-75
2023/06/12 04:10:36;;;;;;;12.27;5.80;;;;;;;15.23;100.00;101696.31;5055829;28;20470;-75
2023/06/12 04:13:01;;;;;;;11.30;5.43;;;;;;;15.24;100.00;101694.47;5090949;28;20421;-75
2023/06/12 04:15:29;;;;;;;7.40;5.30;;;;;;;15.24;100.00;101691.78;5091138;28;20452;-75
2023/06/12 04:17:55;;;;;;;9.85;5.10;;;;;;;15.27;100.00;101699.53;5091288;28;20049;-75
2023/06/12 04:20:21;;;;;;;8.15;5.00;;;;;;;15.30;100.00;101700.09;5091040;28;20054;-75
2023/06/12 04:22:47;;;;;;;8.95;4.85;;;;;;;15.31;100.00;101699.06;5090798;28;20135;-75
2023/06/12 04:25:13;;;;;;;8.80;4.90;;;;;;;15.34;100.00;101708.66;5090921;28;20107;-75
2023/06/12 04:27:42;;;;;;;8.50;4.93;;;;;;;15.38;100.00;101706.56;5072433;28;20114;-75
2023/06/12 04:30:09;;;;;;;6.85;5.40;;;;;;;15.39;100.00;101698.34;5090164;28;20366;-75
2023/06/12 04:32:34;;;;;;;8.43;4.88;;;;;;;15.43;100.00;101702.41;5090802;28;20031;-74
2023/06/12 04:35:01;;;;;;;12.88;5.03;;;;;;;15.48;100.00;101700.13;5091190;28;20051;-76
2023/06/12 04:37:27;;;;;;;6.50;5.10;;;;;;;15.55;100.00;101707.56;5072746;28;20074;-75
2023/06/12 04:39:53;;;;;;;6.57;5.10;;;;;;;15.62;100.00;101711.34;5072365;28;20374;-76
2023/06/12 04:42:18;;;;;;;10.38;5.13;;;;;;;15.70;100.00;101706.03;5090909;28;20098;-76
2023/06/12 04:44:46;;;;;;;13.73;4.90;;;;;;;15.78;100.00;101699.94;5090857;28;20024;-76
2023/06/12 04:47:12;;;;;;;8.02;5.10;;;;;;;15.88;100.00;101711.47;5090726;28;20028;-76
2023/06/12 04:49:43;;;;;;;12.20;5.00;;;;;;;15.96;100.00;101708.88;5090947;28;20069;-75
2023/06/12 04:52:08;;;;;;;14.40;4.65;;;;;;;16.03;100.00;101704.56;5090906;28;20169;-75
2023/06/12 04:54:38;;;;;;;6.28;4.85;;;;;;;16.11;100.00;101713.69;5090895;28;20107;-76
2023/06/12 04:57:16;;;;;;;11.73;4.93;;;;;;;16.18;100.00;101704.00;5091088;28;20166;-80
2023/06/12 04:59:45;;;;;;;10.57;5.00;;;;;;;16.26;100.00;101708.59;5091306;28;20016;-79
2023/06/12 05:02:11;;;;;;;10.38;5.05;;;;;;;16.34;100.00;101704.13;5072660;28;20067;-78
2023/06/12 05:04:37;;;;;;;7.07;4.55;;;;;;;16.42;100.00;101706.06;5072379;28;20118;-78
2023/06/12 05:07:16;;;;;;;11.27;6.85;;;;;;;16.51;100.00;101706.94;5090719;28;20027;-80
2023/06/12 05:09:42;;;;;;;16.15;7.95;;;;;;;16.58;100.00;101708.00;5090959;28;20058;-79
2023/06/12 05:12:08;;;;;;;10.98;6.75;;;;;;;16.65;100.00;101708.25;5090555;28;20337;-78
2023/06/12 05:14:34;;;;;;;13.27;5.25;;;;;;;16.69;100.00;101705.06;5090341;28;20024;-79
2023/06/12 05:17:00;;;;;;;8.52;5.30;;;;;;;16.76;100.00;101705.28;5089908;28;20027;-80
2023/06/12 05:19:26;;;;;;;7.97;5.75;;;;;;;16.83;100.00;101709.00;5072443;28;20547;-80
2023/06/12 05:21:52;;;;;;;8.02;5.07;;;;;;;16.89;100.00;101711.09;5090775;28;20028;-80
2023/06/12 05:24:17;;;;;;;9.38;5.10;;;;;;;16.97;100.00;101712.13;5090655;28;20040;-81
2023/06/12 05:26:42;;;;;;;11.95;4.93;;;;;;;17.02;100.00;101713.34;5090154;28;20032;-81
2023/06/12 05:29:08;;;;;;;11.82;5.03;;;;;;;17.12;100.00;101715.06;5090297;28;20056;-81
2023/06/12 05:31:33;;;;;;;8.68;4.78;;;;;;;17.19;100.00;101708.06;5055678;28;20139;-80
2023/06/12 05:33:59;;;;;;;6.47;4.63;;;;;;;17.26;100.00;101715.31;5090195;28;20036;-81
2023/06/12 05:36:24;;;;;;;9.18;5.20;;;;;;;17.34;100.00;101709.09;5090496;28;20028;-80
2023/06/12 05:38:49;;;;;;;6.95;4.90;;;;;;;17.43;100.00;101712.69;5072238;28;20110;-77
2023/06/12 05:41:15;;;;;;;7.65;5.80;;;;;;;17.55;100.00;101705.16;5090556;28;20033;-77
2023/06/12 05:43:44;;;;;;;9.63;6.50;;;;;;;17.66;100.00;101709.38;5090303;28;20100;-77
2023/06/12 05:46:10;;;;;;;9.82;5.10;;;;;;;17.80;100.00;101711.44;5090636;28;20114;-77
2023/06/12 05:48:36;;;;;;;9.55;4.75;;;;;;;17.96;100.00;101702.56;5090004;28;20057;-76
2023/06/12 05:51:02;;;;;;;7.53;4.75;;;;;;;18.15;100.00;101717.53;5090188;28;20028;-76
2023/06/12 05:53:27;;;;;;;8.27;4.25;;;;;;;18.35;100.00;101718.06;5090192;28;20031;-76
2023/06/12 05:55:53;;;;;;;10.55;4.60;;;;;;;18.57;100.00;101716.53;5090167;28;20026;-76
2023/06/12 05:58:19;;;;;;;7.60;4.68;;;;;;;18.78;100.00;101712.44;5090493;28;20087;-76
2023/06/12 06:00:45;;;;;;;5.10;4.50;;;;;;;19.03;100.00;101708.69;5090335;28;20032;-75
2023/06/12 06:03:10;;;;;;;5.55;4.53;;;;;;;19.28;100.00;101708.59;5090004;28;20048;-76
2023/06/12 06:05:36;;;;;;;8.05;4.70;;;;;;;19.53;100.00;101706.59;5089837;28;20486;-76
2023/06/12 06:08:02;;;;;;;6.63;5.20;;;;;;;19.83;100.00;101714.06;5090221;28;20032;-77
2023/06/12 06:10:27;;;;;;;7.13;4.50;;;;;;;20.12;100.00;101710.63;5090503;28;20377;-76
2023/06/12 06:12:53;;;;;;;10.73;4.45;;;;;;;20.39;100.00;101711.94;5071800;28;20020;-76
2023/06/12 06:15:18;;;;;;;6.90;4.50;;;;;;;20.66;100.00;101715.09;5089953;28;20078;-76
2023/06/12 06:17:44;;;;;;;6.88;4.95;;;;;;;20.92;100.00;101717.31;5090143;28;20058;-76
2023/06/12 06:20:11;;;;;;;8.43;4.40;;;;;;;21.14;100.00;101718.25;5090246;28;20079;-76
2023/06/12 06:22:37;;;;;;;5.47;4.40;;;;;;;21.38;100.00;101718.97;5089989;28;20058;-76
2023/06/12 06:25:03;;;;;;;6.28;4.38;;;;;;;21.65;100.00;101716.59;5090372;28;20055;-79
2023/06/12 06:27:29;;;;;;;9.85;4.95;;;;;;;21.86;100.00;101712.25;5090723;28;20032;-76
2023/06/12 06:29:55;;;;;;;9.48;6.45;;;;;;;22.07;100.00;101720.38;5092999;28;20063;-76
2023/06/12 06:32:21;;;;;;;4.75;4.20;;;;;;;22.23;100.00;101716.56;5093467;28;20456;-77
2023/06/12 06:34:46;;;;;;;6.68;4.32;;;;;;;22.41;98.43;101718.81;5093251;28;20047;-77
2023/06/12 06:37:12;;;;;;;9.23;4.53;;;;;;;22.59;99.36;101723.75;5093314;28;20031;-77
2023/06/12 06:39:37;;;;;;;9.68;4.32;;;;;;;22.73;91.68;101721.97;5093390;28;20034;-77
2023/06/12 06:42:03;;;;;;;7.38;4.35;;;;;;;22.91;93.70;101713.28;5093228;28;20032;-77
2023/06/12 06:44:28;;;;;;;9.07;4.47;;;;;;;23.09;86.46;101718.19;5074713;28;20032;-77
2023/06/12 06:46:54;;;;;;;11.60;4.53;;;;;;;23.12;83.76;101720.53;5093306;28;20038;-76
2023/06/12 06:49:19;;;;;;;7.32;4.53;;;;;;;23.22;89.02;101726.44;5092825;28;20036;-75
2023/06/12 06:51:45;;;;;;;6.15;4.03;;;;;;;23.38;85.18;101725.25;5074746;28;20127;-77
2023/06/12 06:54:10;;;;;;;7.38;4.40;;;;;;;23.42;81.23;101726.53;5093210;28;20478;-76
2023/06/12 06:56:36;;;;;;;7.47;3.80;;;;;;;23.45;86.12;101727.97;5092885;28;20040;-76
2023/06/12 06:59:01;;;;;;;9.40;4.68;;;;;;;23.51;84.81;101732.63;5092782;28;20095;-75
2023/06/12 07:01:27;;;;;;;8.75;4.40;;;;;;;23.58;80.50;101730.75;5092471;28;20031;-74
2023/06/12 07:03:52;;;;;;;12.98;4.22;;;;;;;23.74;79.49;101731.44;5092913;28;20048;-75
2023/06/12 07:06:18;;;;;;;7.45;4.35;;;;;;;23.90;82.53;101728.38;5092683;28;20050;-75
2023/06/12 07:08:43;;;;;;;10.98;4.60;;;;;;;23.96;76.58;101732.16;5092677;28;20095;-75
2023/06/12 07:11:09;;;;;;;7.45;4.22;;;;;;;24.07;75.21;101730.69;5074621;28;20313;-77
2023/06/12 07:13:35;;;;;;;8.57;4.32;;;;;;;24.24;77.44;101731.09;5092454;28;20441;-75
2023/06/12 07:16:00;;;;;;;12.88;6.85;;;;;;;24.40;75.60;101724.44;5092586;28;20172;-75
2023/06/12 07:18:25;;;;;;;6.22;4.75;;;;;;;24.59;81.09;101730.94;5092812;28;20135;-75
2023/06/12 07:20:51;;;;;;;6.07;4.20;;;;;;;24.73;72.54;101735.28;5092501;28;20046;-75
2023/06/12 07:23:16;;;;;;;12.73;4.53;;;;;;;24.83;72.21;101732.16;5092541;28;20032;-75
2023/06/12 07:25:41;;;;;;;4.85;3.90;;;;;;;25.02;68.74;101735.88;5092202;28;20111;-75
2023/06/12 07:28:07;;;;;;;5.63;4.00;;;;;;;25.10;62.47;101730.19;5073712;28;20032;-75
2023/06/12 07:30:33;;;;;;;5.90;4.20;;;;;;;25.20;61.58;101728.88;5092061;28;20185;-75
2023/06/12 07:33:00;;;;;;;11.05;4.40;;;;;;;25.23;57.42;101731.16;5092293;28;20093;-74
2023/06/12 07:35:25;;;;;;;10.80;4.35;;;;;;;25.17;57.95;101730.16;5091908;28;20035;-75
2023/06/12 07:37:50;;;;;;;6.45;4.38;;;;;;;25.27;68.17;101727.78;5091811;28;20032;-76
2023/06/12 07:40:16;;;;;;;5.70;4.07;;;;;;;25.37;63.48;101729.28;5091706;28;20036;-76
2023/06/12 07:42:42;;;;;;;9.55;4.18;;;;;;;25.48;59.99;101734.88;5091390;28;20055;-75
2023/06/12 07:45:08;;;;;;;9.27;4.13;;;;;;;25.52;56.71;101729.81;5091863;28;20028;-75
2023/06/12 07:47:33;;;;;;;6.60;3.90;;;;;;;25.58;60.30;101725.41;5091661;28;20421;-75
2023/06/12 07:49:59;;;;;;;7.15;4.40;;;;;;;25.75;59.43;101715.66;5091437;28;20039;-74
2023/06/12 07:52:24;;;;;;;7.93;4.10;;;;;;;25.91;56.76;101725.19;5091793;28;20028;-75
2023/06/12 07:54:50;;;;;;;7.32;4.50;;;;;;;26.02;55.79;101719.06;5091443;28;20107;-75
2023/06/12 07:57:16;;;;;;;5.63;4.20;;;;;;;26.12;52.82;101725.91;5091656;28;20119;-74
2023/06/12 07:59:42;;;;;;;8.73;4.07;;;;;;;26.25;55.12;101719.53;5091290;28;20487;-75
2023/06/12 08:02:09;;;;;;;6.22;3.90;;;;;;;26.34;51.10;101723.66;5073220;28;20197;-77
2023/06/12 08:04:35;;;;;;;6.47;3.97;;;;;;;26.48;54.50;101718.91;5091322;28;20113;-75
2023/06/12 08:07:01;;;;;;;7.00;4.22;;;;;;;26.48;50.44;101711.53;5091277;28;20039;-77
2023/06/12 08:09:26;;;;;;;5.95;4.03;;;;;;;26.58;51.26;101717.31;5091114;28;20054;-76
2023/06/12 08:11:52;;;;;;;5.55;4.40;;;;;;;26.68;46.90;101714.13;5072976;28;20028;-75
2023/06/12 08:14:17;;;;;;;10.00;4.55;;;;;;;26.91;48.41;101718.88;5091149;28;20053;-78
2023/06/12 08:16:45;;;;;;;5.93;4.57;;;;;;;27.05;47.52;101719.59;5090924;28;20042;-75
2023/06/12 08:19:10;;;;;;;5.90;4.28;;;;;;;27.22;48.64;101718.97;5091139;28;20039;-75
2023/06/12 08:21:36;;;;;;;5.68;4.47;;;;;;;27.42;46.94;101721.47;5072518;28;20040;-75
2023/06/12 08:24:02;;;;;;;7.80;4.70;;;;;;;27.59;45.93;101719.75;5091456;28;20371;-74
2023/06/12 08:26:28;;;;;;;4.65;3.92;;;;;;;27.48;44.31;101720.53;5072662;28;20115;-75
2023/06/12 08:28:53;;;;;;;5.88;4.10;;;;;;;27.69;49.58;101721.91;5090777;28;20120;-74
2023/06/12 08:31:19;;;;;;;7.70;4.35;;;;;;;27.82;45.16;101718.16;5072693;28;20044;-76
2023/06/12 08:33:44;;;;;;;7.65;4.20;;;;;;;28.00;47.71;101709.09;5090704;28;20433;-75
2023/06/12 08:36:10;;;;;;;5.05;3.75;;;;;;;28.09;41.28;101712.31;5090902;28;20368;-75
2023/06/12 08:38:36;;;;;;;8.52;4.18;;;;;;;28.23;40.25;101704.72;5090737;28;20072;-75
2023/06/12 08:41:03;;;;;;;5.80;3.88;;;;;;;28.25;39.93;101703.41;5090436;28;20079;-74
2023/06/12 08:43:29;;;;;;;15.30;4.35;;;;;;;28.34;40.14;101712.09;5090791;28;20058;-75
2023/06/12 08:45:57;;;;;;;10.43;3.60;;;;;;;28.53;39.77;101711.97;5090651;28;20028;-74
2023/06/12 08:48:26;;;;;;;5.95;3.80;;;;;;;28.70;39.47;101710.22;5090474;28;20024;-75
2023/06/12 08:50:53;;;;;;;8.70;4.13;;;;;;;28.88;40.77;101706.50;5089802;28;20440;-75
2023/06/12 08:53:19;;;;;;;7.82;4.18;;;;;;;29.10;38.76;101708.59;5090231;28;20377;-73
2023/06/12 08:55:44;;;;;;;15.43;3.97;;;;;;;29.32;35.91;101700.56;5090171;28;20118;-76
2023/06/12 08:58:10;;;;;;;6.35;4.90;;;;;;;29.52;35.80;101703.69;5090829;28;20055;-74
2023/06/12 09:00:36;;;;;;;7.10;3.90;;;;;;;29.75;37.08;101703.81;5090533;28;20085;-77
2023/06/12 09:03:06;;;;;;;8.50;3.78;;;;;;;30.00;32.82;101697.97;5090033;28;20126;-74
2023/06/12 09:05:33;;;;;;;9.77;4.00;;;;;;;30.12;31.82;101700.66;5090560;28;20126;-74
2023/06/12 09:08:05;;;;;;;8.20;4.00;;;;;;;30.46;32.56;101700.66;5090713;28;20032;-75
2023/06/12 09:10:32;;;;;;;5.53;3.50;;;;;;;30.68;33.76;101697.91;5090986;28;20039;-76
2023/06/12 09:12:58;;;;;;;4.72;3.88;;;;;;;30.84;34.14;101701.72;5090007;28;20032;-76
2023/06/12 09:15:24;;;;;;;5.97;3.80;;;;;;;30.99;34.02;101695.59;5090526;28;20161;-77
2023/06/12 09:17:51;;;;;;;16.02;4.05;;;;;;;31.23;31.29;101694.25;5090487;28;20389;-75
2023/06/12 09:20:26;;;;;;;8.13;3.70;;;;;;;31.52;32.91;101690.44;5072074;28;20301;-74
2023/06/12 09:22:51;;;;;;;5.30;3.40;;;;;;;31.71;34.50;101694.50;5090314;28;20031;-75
2023/06/12 09:25:18;;;;;;;7.82;4.05;;;;;;;31.76;30.51;101686.28;5090219;28;20526;-78
2023/06/12 09:27:45;;;;;;;7.15;3.85;;;;;;;31.88;31.66;101697.13;5090211;28;20028;-74
2023/06/12 09:30:11;;;;;;;7.97;3.78;;;;;;;31.96;32.56;101682.88;5090614;28;20032;-76
2023/06/12 09:32:37;;;;;;;5.15;3.67;;;;;;;31.88;31.45;101694.34;5089941;28;20107;-75
2023/06/12 09:35:03;;;;;;;11.10;3.90;;;;;;;31.86;32.01;101695.72;5090254;28;20489;-75
2023/06/12 09:37:29;;;;;;;8.45;3.78;;;;;;;31.97;31.80;101698.28;5090014;28;20153;-76
2023/06/12 09:40:09;;;;;;;9.38;4.00;;;;;;;32.02;31.22;101691.16;5071687;28;20165;-75
2023/06/12 09:42:35;;;;;;;;;;;;;;;32.03;32.58;101695.59;5090469;28;20509;-75
2023/06/12 09:45:10;;;;;;;7.97;3.90;;;;;;;32.06;31.71;101686.81;5071380;28;20024;-74
2023/06/12 09:47:42;;;;;;;5.50;4.03;;;;;;;32.26;33.28;101683.38;5090250;28;20035;-75
2023/06/12 09:50:09;;;;;;;11.50;4.10;;;;;;;32.44;33.97;101695.88;5090328;28;20043;-75
2023/06/12 09:52:36;;;;;;;10.15;3.70;;;;;;;32.27;31.15;101696.06;5089704;28;20032;-75
2023/06/12 09:55:03;;;;;;;7.45;3.83;;;;;;;32.27;31.46;101694.13;5071678;28;20025;-75
2023/06/12 09:57:31;;;;;;;7.15;4.15;;;;;;;32.00;30.71;101686.75;5090141;28;20126;-79
2023/06/12 10:00:02;;;;;;;5.93;3.85;;;;;;;32.15;31.90;101690.75;5089789;28;20031;-75
2023/06/12 10:02:28;;;;;;;7.35;3.50;;;;;;;32.32;29.71;101694.19;5092148;28;20070;-75
2023/06/12 10:05:05;;;;;;;11.60;3.70;;;;;;;32.13;29.68;101691.00;5093755;28;20056;-75
2023/06/12 10:07:40;;;;;;;8.98;3.55;;;;;;;32.30;28.86;101690.84;5093792;28;20040;-78
2023/06/12 10:10:07;;;;;;;7.80;3.63;;;;;;;32.54;29.06;101695.13;5093705;28;20031;-74
2023/06/12 10:12:35;;;;;;;7.03;3.35;;;;;;;32.50;29.88;101694.81;5093531;28;20058;-74
2023/06/12 10:15:03;;;;;;;8.40;3.70;;;;;;;32.62;27.51;101691.84;5093713;28;20047;-76
2023/06/12 10:17:29;;;;;;;4.65;3.60;;;;;;;32.74;28.04;101686.16;5094075;28;20176;-78
2023/06/12 10:19:56;;;;;;;5.65;3.63;;;;;;;32.71;27.33;101684.78;5093568;28;20058;-77
2023/06/12 10:22:22;;;;;;;5.00;3.40;;;;;;;33.09;29.83;101690.19;5094065;28;20036;-75
2023/06/12 10:24:48;;;;;;;10.60;4.00;;;;;;;33.19;27.50;101687.44;5093589;28;20093;-78
2023/06/12 10:27:15;;;;;;;12.23;3.90;;;;;;;33.25;27.38;101686.38;5093580;28;20456;-74
2023/06/12 10:29:40;;;;;;;12.85;3.40;;;;;;;33.43;27.48;101695.22;5075072;28;20448;-77
2023/06/12 10:32:08;;;;;;;8.38;3.80;;;;;;;33.52;26.07;101688.91;5093062;28;20119;-77
2023/06/12 10:34:35;;;;;;;6.38;3.67;;;;;;;33.45;27.98;101685.59;5093292;28;20107;-79
2023/06/12 10:37:19;;;;;;;8.95;3.25;;;;;;;33.54;29.32;101685.88;5093492;28;20084;-77
2023/06/12 10:39:46;;;;;;;8.88;4.18;;;;;;;33.50;26.98;101676.50;5093309;28;20024;-77
2023/06/12 10:42:12;;;;;;;6.88;3.63;;;;;;;33.48;26.52;101689.75;5093162;28;20321;-77
2023/06/12 10:44:45;;;;;;;3.53;3.15;;;;;;;33.66;26.41;101683.69;5074929;28;20073;-76
2023/06/12 10:47:23;;;;;;;6.55;3.78;;;;;;;34.12;26.88;101682.06;5092818;28;20135;-76
2023/06/12 10:50:05;;;;;;;11.55;3.60;;;;;;;34.72;26.59;101669.19;5092947;28;20028;-78
2023/06/12 10:52:31;;;;;;;5.57;3.40;;;;;;;35.08;25.33;101673.75;5093246;28;20461;-76
2023/06/12 10:55:20;;;;;;;6.20;3.47;;;;;;;35.67;26.29;101667.28;5074454;28;20032;-77
2023/06/12 10:57:59;;;;;;;7.47;3.47;;;;;;;35.72;24.00;101669.19;5092966;28;20019;-78
2023/06/12 11:00:31;;;;;;;8.00;3.30;;;;;;;35.52;22.32;101658.28;5074966;28;20027;-76
2023/06/12 11:03:02;;;;;;;9.07;3.67;;;;;;;35.98;23.98;101669.81;5092492;28;20097;-77
2023/06/12 11:05:30;;;;;;;6.57;3.78;;;;;;;36.57;24.54;101663.41;5092603;28;20028;-77
2023/06/12 11:08:23;;;;;;;6.80;3.53;;;;;;;36.85;21.45;101665.28;5092763;28;20162;-76
2023/06/12 11:10:49;;;;;;;4.47;3.10;;;;;;;37.30;22.25;101670.50;5089147;28;20479;-78
2023/06/12 11:13:14;;;;;;;7.82;3.72;;;;;;;37.12;23.23;101665.78;5091619;28;20154;-76
2023/06/12 11:15:42;;;;;;;6.50;3.50;;;;;;;37.07;22.61;101663.91;5092499;28;20054;-77
2023/06/12 11:18:08;;;;;;;10.73;3.88;;;;;;;37.43;22.10;101659.75;5074144;28;20131;-78
2023/06/12 11:20:33;;;;;;;7.88;3.40;;;;;;;37.47;20.79;101652.50;5092828;28;20085;-77